Time;durP1;ratioP1;P1;durP2;ratioP2;P2;SDS_P1;SDS_P2;PMS_P1;PMS_P2;Temp;Humidity;BMP_temperature;BMP_pressure;BME280_temperature;BME280_humidity;BME280_pressure;Samples;Min_cycle;Max_cycle;Signal;HPM_P1;HPM_P2
2022/08/28 00:01:14;;;;;;;15.40;5.85;;;;;;;23.10;85.52;99376.97;4270334;33;34203;-74
2022/08/28 00:04:01;;;;;;;13.73;6.18;;;;;;;23.18;85.86;99384.13;4269765;33;35048;-75
2022/08/28 00:06:47;;;;;;;11.63;5.75;;;;;;;22.95;85.75;99380.97;4270581;33;34679;-75
2022/08/28 00:09:34;;;;;;;13.98;5.12;;;;;;;23.27;84.21;99384.50;4270569;33;34535;-75
2022/08/28 00:12:20;;;;;;;8.68;5.50;;;;;;;23.25;84.91;99374.94;4270387;33;35527;-75
2022/08/28 00:15:11;;;;;;;15.82;5.45;;;;;;;22.15;91.46;99362.56;4270496;33;33304;-76
2022/08/28 00:17:58;;;;;;;;;;;;;;;22.28;91.32;99355.41;4259302;33;34569;-75
2022/08/28 00:20:45;;;;;;;11.50;5.45;;;;;;;22.14;91.57;99363.72;4258476;33;34846;-75
2022/08/28 00:23:34;;;;;;;11.25;5.40;;;;;;;22.29;90.15;99370.97;4269936;33;33815;-75
2022/08/28 00:29:43;;;;;;;8.95;4.53;;;;;;;21.54;93.81;99387.44;4225451;33;34735;-75
2022/08/28 00:32:30;;;;;;;11.98;4.53;;;;;;;21.39;95.04;99396.94;4270297;33;34973;-75
2022/08/28 00:35:17;;;;;;;10.65;4.45;;;;;;;21.39;95.12;99397.72;4270201;33;34620;-75
2022/08/28 00:38:04;;;;;;;11.82;4.72;;;;;;;21.69;93.15;99388.31;4265729;33;34724;-75
2022/08/28 00:40:54;;;;;;;11.12;4.30;;;;;;;21.24;95.76;99390.44;4270321;33;35528;-75
2022/08/28 00:43:44;;;;;;;10.32;4.85;;;;;;;20.95;98.17;99384.69;4269681;33;35813;-75
2022/08/28 00:46:30;;;;;;;15.07;4.82;;;;;;;21.63;94.58;99385.13;4269264;33;35396;-75
2022/08/28 00:49:20;;;;;;;12.60;5.00;;;;;;;21.38;95.85;99378.63;4270348;33;33494;-75
2022/08/28 00:52:11;;;;;;;12.32;4.87;;;;;;;21.73;91.84;99383.56;4259283;33;34690;-75
2022/08/28 00:54:59;;;;;;;;;;;;;;;21.07;96.29;99376.00;4270314;33;34973;-75
2022/08/28 00:57:50;;;;;;;16.27;5.30;;;;;;;21.19;96.43;99365.75;4270356;33;34780;-75
2022/08/28 01:00:39;;;;;;;13.85;5.43;;;;;;;21.47;93.95;99360.34;4257945;33;35155;-75
2022/08/28 01:03:26;;;;;;;18.08;4.60;;;;;;;21.61;93.65;99344.87;4269561;33;35354;-76
2022/08/28 01:06:14;;;;;;;18.00;4.50;;;;;;;21.87;92.60;99361.28;4258991;33;34626;-75
2022/08/28 01:09:01;;;;;;;17.55;5.03;;;;;;;21.25;96.74;99345.47;4270040;33;34755;-75
2022/08/28 01:11:49;;;;;;;12.55;5.53;;;;;;;21.70;93.37;99354.47;4258979;33;35071;-75
2022/08/28 01:14:37;;;;;;;10.95;4.50;;;;;;;21.49;94.51;99349.59;4259711;33;34583;-75
2022/08/28 01:17:25;;;;;;;14.63;5.75;;;;;;;21.40;95.55;99357.50;4260882;33;35744;-75
2022/08/28 01:20:16;;;;;;;12.63;4.70;;;;;;;20.96;98.27;99363.22;4260163;33;34081;-75
2022/08/28 01:23:06;;;;;;;;;;;;;;;21.16;95.97;99366.53;4272122;33;35165;-75
2022/08/28 01:25:52;;;;;;;5.35;3.62;;;;;;;20.90;97.27;99376.69;4260320;33;33729;-75
2022/08/28 01:28:39;;;;;;;10.93;3.78;;;;;;;21.20;91.55;99375.69;4260723;33;36106;-75
2022/08/28 01:31:27;;;;;;;10.88;3.65;;;;;;;21.20;91.38;99378.47;4260630;33;34617;-75
2022/08/28 01:34:14;;;;;;;7.45;3.42;;;;;;;21.33;89.53;99382.53;4260646;33;35626;-75
2022/08/28 01:37:01;;;;;;;4.50;2.90;;;;;;;21.47;87.77;99385.44;4272012;33;35658;-76
2022/08/28 01:39:49;;;;;;;7.47;3.00;;;;;;;21.39;87.19;99385.78;4260173;33;34374;-75
2022/08/28 01:42:39;;;;;;;12.40;3.03;;;;;;;21.43;86.91;99392.97;4260470;33;35402;-76
2022/08/28 01:45:26;;;;;;;4.68;2.83;;;;;;;21.61;86.50;99390.28;4271719;33;33719;-75
2022/08/28 01:48:15;;;;;;;7.25;2.72;;;;;;;21.44;87.04;99389.00;4260835;33;34550;-75
2022/08/28 01:51:03;;;;;;;5.30;2.50;;;;;;;21.33;88.20;99379.75;4271490;33;34990;-75
2022/08/28 01:53:49;;;;;;;7.15;3.30;;;;;;;21.46;87.25;99381.06;4271381;33;34381;-75
2022/08/28 01:56:36;;;;;;;6.35;2.85;;;;;;;21.03;90.54;99391.09;4271738;33;33415;-75
2022/08/28 01:59:22;;;;;;;11.48;3.47;;;;;;;20.77;92.96;99378.97;4260713;33;34671;-75
2022/08/28 02:02:09;;;;;;;7.03;3.10;;;;;;;20.86;93.22;99381.44;4272126;33;35590;-75
2022/08/28 02:04:55;;;;;;;5.50;3.50;;;;;;;21.14;91.90;99363.31;4270706;33;34480;-75
2022/08/28 02:07:42;;;;;;;10.30;3.65;;;;;;;21.10;92.12;99352.94;4271700;33;34278;-75
2022/08/28 02:10:30;;;;;;;5.70;3.00;;;;;;;20.96;92.36;99352.06;4270572;33;34669;-75
2022/08/28 02:13:16;;;;;;;6.47;3.47;;;;;;;20.83;93.34;99349.62;4259978;33;35145;-75
2022/08/28 02:16:07;;;;;;;10.05;3.45;;;;;;;21.34;89.48;99345.09;4272163;33;33644;-74
2022/08/28 02:18:53;;;;;;;7.57;3.60;;;;;;;21.15;90.31;99337.87;4271560;33;33776;-75
2022/08/28 02:21:40;;;;;;;10.98;3.40;;;;;;;20.58;93.93;99354.19;4260530;33;35514;-74
2022/08/28 02:24:26;;;;;;;7.20;3.33;;;;;;;20.73;94.63;99344.75;4271309;33;34520;-74
2022/08/28 02:27:12;;;;;;;8.57;3.83;;;;;;;20.74;94.27;99335.19;4260077;33;34629;-75
2022/08/28 02:29:58;;;;;;;8.77;3.95;;;;;;;20.91;93.42;99336.50;4271282;33;34221;-75
2022/08/28 02:32:45;;;;;;;11.77;3.70;;;;;;;20.33;96.90;99337.25;4270623;33;34723;-75
2022/08/28 02:35:32;;;;;;;6.57;3.45;;;;;;;20.49;95.03;99335.00;4271506;33;35023;-75
2022/08/28 02:38:18;;;;;;;8.80;4.22;;;;;;;21.02;91.90;99331.03;4271195;33;35555;-74
2022/08/28 02:41:05;;;;;;;7.97;3.67;;;;;;;21.11;91.48;99343.41;4259893;33;33744;-74
2022/08/28 02:43:53;;;;;;;9.98;3.65;;;;;;;20.41;98.42;99334.12;4260366;33;34702;-75
2022/08/28 02:46:39;;;;;;;6.85;3.90;;;;;;;20.15;100.00;99339.84;4271011;33;34635;-75
2022/08/28 02:49:25;;;;;;;8.93;3.90;;;;;;;20.17;100.00;99345.81;4271018;33;34185;-74
2022/08/28 02:52:18;;;;;;;6.78;3.83;;;;;;;20.20;100.00;99361.75;4260918;33;35021;-74
2022/08/28 02:55:06;;;;;;;6.85;3.72;;;;;;;19.89;100.00;99380.50;4259639;33;35571;-74
2022/08/28 02:57:53;;;;;;;7.37;4.10;;;;;;;20.27;100.00;99380.50;4250150;33;34914;-74
2022/08/28 03:00:40;;;;;;;7.43;4.07;;;;;;;20.08;100.00;99375.94;4260349;33;34544;-74
2022/08/28 03:03:29;;;;;;;8.52;4.40;;;;;;;19.81;100.00;99364.09;4270740;33;35122;-75
2022/08/28 03:06:16;;;;;;;9.57;4.30;;;;;;;19.79;100.00;99361.72;4270993;33;34418;-74
2022/08/28 03:09:03;;;;;;;7.47;4.03;;;;;;;20.05;100.00;99369.16;4270358;33;35912;-74
2022/08/28 03:11:52;;;;;;;7.50;3.80;;;;;;;20.07;100.00;99375.16;4270680;33;34587;-74
2022/08/28 03:14:38;;;;;;;5.53;3.80;;;;;;;19.67;100.00;99378.66;4271355;33;34982;-74
2022/08/28 03:17:25;;;;;;;6.75;4.05;;;;;;;19.89;100.00;99371.34;4271042;33;34617;-74
2022/08/28 03:20:12;;;;;;;5.95;4.03;;;;;;;19.86;100.00;99372.12;4270847;33;35000;-75
2022/08/28 03:26:07;;;;;;;10.05;5.05;;;;;;;20.02;100.00;99377.47;4270901;33;35987;-74
2022/08/28 03:28:54;;;;;;;7.03;4.75;;;;;;;19.71;100.00;99368.37;4260186;33;34629;-74
2022/08/28 03:31:41;;;;;;;8.30;4.15;;;;;;;20.17;100.00;99374.44;4270089;33;36048;-75
2022/08/28 03:34:29;;;;;;;11.32;3.85;;;;;;;19.87;100.00;99371.75;4271016;33;35490;-74
2022/08/28 03:37:16;;;;;;;10.98;3.75;;;;;;;20.10;100.00;99365.25;4270088;33;34264;-74
2022/08/28 03:40:03;;;;;;;8.32;4.00;;;;;;;20.38;100.00;99361.94;4259608;33;35601;-75
2022/08/28 03:42:49;;;;;;;6.55;3.78;;;;;;;20.86;100.00;99367.50;4260085;33;34970;-74
2022/08/28 03:45:39;;;;;;;6.30;3.35;;;;;;;20.81;100.00;99363.09;4260181;33;34554;-75
2022/08/28 03:48:27;;;;;;;9.23;4.10;;;;;;;20.65;100.00;99360.59;4270911;33;33253;-74
2022/08/28 03:51:16;;;;;;;6.87;4.40;;;;;;;20.66;100.00;99361.37;4259960;33;34794;-74
2022/08/28 03:54:03;;;;;;;8.50;3.92;;;;;;;20.63;100.00;99357.41;4249646;33;35882;-75
2022/08/28 03:56:50;;;;;;;8.18;4.18;;;;;;;21.08;97.50;99352.53;4258711;33;34388;-74
2022/08/28 03:59:37;;;;;;;8.07;4.37;;;;;;;20.48;100.00;99350.09;4271014;33;35090;-82
2022/08/28 04:02:23;;;;;;;6.62;4.05;;;;;;;20.33;100.00;99342.81;4272750;33;34329;-81
2022/08/28 04:05:10;;;;;;;5.72;3.92;;;;;;;20.87;98.44;99344.84;4271997;33;35057;-81
2022/08/28 04:07:57;;;;;;;7.60;4.62;;;;;;;21.33;96.60;99337.94;4273307;33;34606;-82
2022/08/28 04:10:45;;;;;;;7.93;4.35;;;;;;;21.44;93.50;99343.59;4272982;33;34647;-81
2022/08/28 04:13:32;;;;;;;7.03;3.97;;;;;;;20.88;97.72;99346.44;4262315;33;35415;-81
2022/08/28 04:16:18;;;;;;;11.02;4.12;;;;;;;20.67;98.12;99335.97;4272957;33;36063;-81
2022/08/28 04:19:04;;;;;;;7.10;4.10;;;;;;;21.29;95.62;99335.16;4271736;33;34653;-81
2022/08/28 04:21:51;;;;;;;10.65;3.87;;;;;;;22.22;89.66;99348.62;4272322;33;33804;-81
2022/08/28 04:24:37;;;;;;;6.53;3.75;;;;;;;22.23;88.76;99339.88;4271862;33;34733;-81
2022/08/28 04:27:23;;;;;;;8.88;4.12;;;;;;;22.05;nan;99346.59;4271955;33;35065;-81
2022/08/28 04:30:11;;;;;;;6.82;4.50;;;;;;;22.63;85.41;99349.06;4273017;33;34346;-81
2022/08/28 04:32:58;;;;;;;6.45;3.78;;;;;;;22.77;85.34;99350.22;4261105;33;35069;-81
2022/08/28 04:35:44;;;;;;;6.05;3.65;;;;;;;22.62;86.04;99355.03;4272838;33;35219;-81
2022/08/28 04:38:30;;;;;;;6.47;4.03;;;;;;;22.86;85.13;99365.41;4261963;33;34170;-81
2022/08/28 04:41:17;;;;;;;7.20;4.05;;;;;;;22.13;87.07;99368.53;4273210;33;34540;-81
2022/08/28 04:44:04;;;;;;;8.23;4.00;;;;;;;21.94;87.83;99366.91;4271981;33;34958;-81
2022/08/28 04:46:51;;;;;;;7.97;3.92;;;;;;;22.43;86.32;99379.38;4261424;33;34112;-81
2022/08/28 04:49:37;;;;;;;6.55;3.83;;;;;;;21.70;90.40;99373.97;4274143;33;34913;-81
2022/08/28 04:52:23;;;;;;;7.37;4.28;;;;;;;21.29;93.02;99376.16;4274041;33;34158;-81
2022/08/28 04:55:10;;;;;;;7.37;4.97;;;;;;;21.87;89.93;99377.22;4274181;33;34095;-81
2022/08/28 04:57:56;;;;;;;6.87;3.95;;;;;;;21.41;92.42;99375.06;4272626;33;35302;-83
2022/08/28 05:00:47;;;;;;;7.72;3.95;;;;;;;22.07;89.48;99377.69;4274556;33;35101;-86
2022/08/28 05:03:34;;;;;;;7.65;3.85;;;;;;;22.08;90.28;99387.62;4263068;33;34231;-86
2022/08/28 05:06:21;;;;;;;11.18;4.35;;;;;;;23.01;84.50;99387.75;4274836;33;35052;-86
2022/08/28 05:09:08;;;;;;;6.30;3.92;;;;;;;23.28;83.65;99397.31;4273778;33;35699;-86
2022/08/28 05:11:54;;;;;;;6.65;3.78;;;;;;;23.46;83.34;99396.47;4262590;33;35709;-86
2022/08/28 05:14:40;;;;;;;7.15;4.28;;;;;;;23.57;82.05;99397.22;4273937;33;35491;-86
2022/08/28 05:17:27;;;;;;;8.07;3.78;;;;;;;23.57;83.66;99400.81;4274434;33;35073;-86
2022/08/28 05:20:17;;;;;;;6.57;3.87;;;;;;;24.02;81.54;99394.62;4274235;33;34672;-86
2022/08/28 05:23:04;;;;;;;6.72;4.20;;;;;;;23.88;82.19;99394.69;4273460;33;35050;-85
2022/08/28 05:25:50;;;;;;;7.12;4.35;;;;;;;23.44;83.41;99390.47;4263018;33;34154;-86
2022/08/28 05:28:38;;;;;;;6.80;3.95;;;;;;;23.71;83.07;99391.59;4274898;33;34197;-86
2022/08/28 05:31:25;;;;;;;9.43;4.37;;;;;;;23.54;83.53;99386.84;4263822;33;34670;-85
2022/08/28 05:34:12;;;;;;;9.45;3.95;;;;;;;24.05;80.17;99376.22;4262988;33;35089;-86
2022/08/28 05:36:58;;;;;;;7.37;3.83;;;;;;;24.04;81.53;99374.66;4275092;33;34665;-86
2022/08/28 05:39:45;;;;;;;7.62;4.07;;;;;;;24.04;81.46;99372.62;4271660;33;33774;-81
2022/08/28 05:42:31;;;;;;;11.95;4.40;;;;;;;23.33;83.26;99382.88;4271800;33;36161;-80
2022/08/28 05:45:23;;;;;;;8.77;4.18;;;;;;;23.99;80.20;99373.06;4260590;33;35907;-81
2022/08/28 05:48:10;;;;;;;6.12;4.10;;;;;;;23.79;81.80;99376.37;4271251;33;34620;-81
2022/08/28 05:51:19;;;;;;;9.50;4.30;;;;;;;24.50;79.92;99381.97;4271593;33;34143;-81
2022/08/28 05:54:07;;;;;;;9.18;4.05;;;;;;;23.82;81.14;99379.56;4247831;33;35547;-81
2022/08/28 05:56:53;;;;;;;8.40;3.90;;;;;;;24.37;78.97;99378.84;4271665;33;35646;-81
2022/08/28 05:59:40;;;;;;;8.18;4.20;;;;;;;24.43;79.61;99380.03;4271183;33;34726;-81
2022/08/28 06:02:26;;;;;;;8.95;3.83;;;;;;;24.74;77.31;99385.78;4271232;33;35137;-81
2022/08/28 06:05:13;;;;;;;8.23;3.67;;;;;;;24.20;79.20;99388.94;4271669;33;34716;-82
2022/08/28 06:07:59;;;;;;;7.95;3.30;;;;;;;24.40;77.26;99384.41;4260033;33;34945;-80
2022/08/28 06:10:45;;;;;;;7.62;3.85;;;;;;;24.98;71.97;99379.16;4259735;33;35315;-80
2022/08/28 06:13:36;;;;;;;8.05;3.60;;;;;;;24.83;74.69;99383.31;4269565;33;34842;-81
2022/08/28 06:16:24;;;;;;;6.53;3.58;;;;;;;25.09;71.57;99385.44;4269396;33;34222;-80
2022/08/28 06:19:11;;;;;;;6.82;3.33;;;;;;;25.15;71.82;99391.44;4260325;33;35022;-81
2022/08/28 06:22:00;;;;;;;6.07;3.47;;;;;;;25.28;72.53;99388.91;4250440;33;34270;-81
2022/08/28 06:24:52;;;;;;;6.80;3.67;;;;;;;25.30;71.46;99389.28;4271218;33;34204;-81
2022/08/28 06:27:39;;;;;;;7.50;3.80;;;;;;;25.47;69.05;99399.53;4271289;33;34171;-81
2022/08/28 06:30:25;;;;;;;7.60;4.40;;;;;;;25.25;71.09;99400.97;4271447;33;35761;-81
2022/08/28 06:33:15;;;;;;;7.20;3.78;;;;;;;25.18;72.62;99407.41;4258422;33;33343;-80
2022/08/28 06:36:04;;;;;;;7.32;3.65;;;;;;;25.90;68.26;99407.44;4260309;33;34080;-81
2022/08/28 06:38:50;;;;;;;9.82;3.70;;;;;;;26.00;68.03;99400.88;4271218;33;34589;-81
2022/08/28 06:41:41;;;;;;;7.55;3.55;;;;;;;25.71;67.89;99403.22;4259415;33;34857;-81
2022/08/28 06:44:30;;;;;;;7.32;3.80;;;;;;;26.14;66.82;99411.12;4270788;33;34328;-81
2022/08/28 06:47:16;;;;;;;5.85;3.60;;;;;;;26.13;66.06;99400.34;4260405;33;34140;-81
2022/08/28 06:50:03;;;;;;;7.53;3.90;;;;;;;25.14;69.20;99412.28;4270105;33;34651;-81
2022/08/28 06:52:49;;;;;;;6.45;3.47;;;;;;;25.18;68.52;99418.62;4260221;33;34623;-82
2022/08/28 06:55:36;;;;;;;5.85;3.67;;;;;;;26.33;66.46;99417.31;4272252;33;34334;-81
2022/08/28 06:58:22;;;;;;;8.70;3.70;;;;;;;26.51;65.06;99422.69;4250717;33;34146;-82
2022/08/28 07:01:21;;;;;;;8.27;3.80;;;;;;;26.37;66.68;99430.06;4270188;33;35204;-81
2022/08/28 07:04:10;;;;;;;7.68;3.67;;;;;;;26.63;62.54;99431.28;4261021;33;36028;-81
2022/08/28 07:06:57;;;;;;;9.38;4.12;;;;;;;26.76;62.07;99425.88;4270492;33;33583;-82
2022/08/28 07:09:43;;;;;;;7.90;3.60;;;;;;;25.66;67.04;99433.75;4271657;33;34908;-82
2022/08/28 07:12:30;;;;;;;7.25;4.22;;;;;;;26.10;64.12;99438.47;4266805;33;34716;-81
2022/08/28 07:15:17;;;;;;;7.37;3.83;;;;;;;26.29;62.99;99434.19;4270668;33;34555;-82
2022/08/28 07:18:03;;;;;;;7.95;4.25;;;;;;;26.18;64.23;99441.94;4270826;33;34694;-82
2022/08/28 07:20:57;;;;;;;6.95;4.32;;;;;;;25.02;73.28;99447.19;4268606;33;33493;-82
2022/08/28 07:23:45;;;;;;;8.75;4.25;;;;;;;25.22;74.08;99446.66;4270842;33;35188;-81
2022/08/28 07:26:31;;;;;;;6.60;4.47;;;;;;;25.08;75.42;99453.16;4259773;33;34475;-81
2022/08/28 07:29:19;;;;;;;6.62;4.15;;;;;;;25.20;76.33;99451.87;4270419;33;35065;-81
2022/08/28 07:32:05;;;;;;;8.77;4.45;;;;;;;25.15;76.32;99469.13;4260449;33;34987;-81
2022/08/28 07:34:51;;;;;;;7.47;4.57;;;;;;;25.45;74.94;99460.84;4271114;33;35624;-81
2022/08/28 07:37:38;;;;;;;8.25;4.62;;;;;;;25.16;75.80;99463.12;4269105;33;36002;-80
2022/08/28 07:40:26;;;;;;;7.90;4.82;;;;;;;25.73;73.72;99458.94;4271244;33;34560;-81
2022/08/28 07:46:17;;;;;;;9.35;4.72;;;;;;;26.19;70.65;99454.78;4271218;33;34748;-82
2022/08/28 07:49:05;;;;;;;9.23;4.57;;;;;;;25.42;76.99;99456.06;4270673;33;34577;-81
2022/08/28 07:51:52;;;;;;;8.25;4.37;;;;;;;25.52;74.60;99460.75;4271183;33;34571;-82
2022/08/28 07:54:39;;;;;;;9.18;4.62;;;;;;;25.43;75.16;99454.84;4247269;33;34135;-82
2022/08/28 07:57:26;;;;;;;9.65;4.55;;;;;;;25.48;75.12;99457.19;4270478;33;34252;-81
2022/08/28 08:00:12;;;;;;;7.62;4.55;;;;;;;25.62;73.36;99464.66;4249347;33;36304;-81
2022/08/28 08:02:59;;;;;;;6.93;4.30;;;;;;;25.22;76.88;99469.09;4266786;33;34494;-81
2022/08/28 08:05:56;;;;;;;6.60;4.40;;;;;;;25.71;74.77;99475.41;4270695;33;34592;-81
2022/08/28 08:08:44;;;;;;;7.95;4.78;;;;;;;26.00;73.11;99473.06;4247846;33;34515;-81
2022/08/28 08:11:31;;;;;;;10.48;4.82;;;;;;;26.50;67.85;99471.59;4260244;33;34473;-82
2022/08/28 08:14:18;;;;;;;6.78;4.20;;;;;;;25.61;71.40;99476.28;4249387;33;35370;-81
2022/08/28 08:17:04;;;;;;;8.10;4.10;;;;;;;26.68;68.03;99478.59;4270739;33;33128;-82
2022/08/28 08:19:53;;;;;;;6.93;4.50;;;;;;;26.60;67.73;99482.72;4269850;33;35659;-82
2022/08/28 08:22:39;;;;;;;8.73;4.53;;;;;;;26.20;65.93;99470.41;4270368;33;35016;-82
2022/08/28 08:25:26;;;;;;;8.70;4.50;;;;;;;26.58;66.37;99468.31;4259456;33;34173;-82
2022/08/28 08:28:14;;;;;;;8.50;4.68;;;;;;;27.12;64.78;99476.69;4271095;33;34180;-82
2022/08/28 08:31:09;;;;;;;7.82;4.80;;;;;;;27.27;60.94;99477.28;4270717;33;33501;-82
2022/08/28 08:34:00;;;;;;;7.45;4.55;;;;;;;27.36;61.77;99477.50;4259231;33;34550;-83
2022/08/28 08:36:46;;;;;;;7.85;4.72;;;;;;;27.21;62.86;99480.97;4267457;33;34303;-82
2022/08/28 08:39:34;;;;;;;7.80;4.20;;;;;;;27.28;64.03;99481.66;4245175;33;34082;-82
2022/08/28 08:42:26;;;;;;;10.25;4.60;;;;;;;27.67;60.10;99477.34;4263640;33;187023;-82
2022/08/28 08:45:14;;;;;;;8.95;4.50;;;;;;;27.91;60.28;99480.91;4269655;33;35084;-82
2022/08/28 08:48:01;;;;;;;8.35;4.70;;;;;;;27.49;61.83;99482.50;4258679;33;34165;-82
2022/08/28 08:50:48;;;;;;;7.87;5.20;;;;;;;27.48;60.60;99478.09;4268254;33;35027;-81
2022/08/28 08:53:45;;;;;;;6.93;4.90;;;;;;;27.90;56.29;99487.00;4269842;33;35711;-82
2022/08/28 08:56:32;;;;;;;7.87;4.93;;;;;;;28.40;55.94;99477.47;4270535;33;36066;-82
2022/08/28 08:59:24;;;;;;;9.02;4.97;;;;;;;27.52;60.26;99478.81;4270272;33;35396;-82
2022/08/28 09:02:20;;;;;;;8.00;4.80;;;;;;;27.37;59.11;99478.28;4255941;33;34191;-83
2022/08/28 09:05:20;;;;;;;8.35;4.70;;;;;;;28.46;53.85;99481.38;4257804;33;34563;-83
2022/08/28 09:08:14;;;;;;;7.53;5.12;;;;;;;27.94;59.47;99482.06;4257900;33;34963;-82
2022/08/28 09:11:16;;;;;;;8.00;4.82;;;;;;;28.03;58.45;99490.72;4269482;33;34130;-81
2022/08/28 09:14:12;;;;;;;8.30;5.50;;;;;;;28.09;54.81;99489.03;4258700;33;35078;-82
2022/08/28 09:17:04;;;;;;;9.05;4.57;;;;;;;28.16;54.98;99490.87;4259315;33;34631;-81
2022/08/28 09:19:50;;;;;;;8.90;5.18;;;;;;;28.27;54.88;99488.63;4248783;33;34481;-82
2022/08/28 09:22:41;;;;;;;10.35;4.97;;;;;;;28.14;56.63;99496.94;4258578;33;34608;-82
2022/08/28 09:26:08;;;;;;;8.23;5.12;;;;;;;28.43;52.25;99500.00;4268481;33;34497;-82
2022/08/28 09:29:03;;;;;;;8.75;5.28;;;;;;;28.88;50.80;99502.16;4248364;33;34530;-83
2022/08/28 09:31:49;;;;;;;9.13;4.72;;;;;;;28.38;51.74;99496.88;4258543;33;35534;-82
2022/08/28 09:34:37;;;;;;;8.93;5.00;;;;;;;28.70;49.34;99496.94;4259153;33;35546;-82
2022/08/28 09:37:26;;;;;;;9.13;4.90;;;;;;;29.06;48.82;99501.78;4260575;33;33696;-82
2022/08/28 09:40:13;;;;;;;8.90;5.18;;;;;;;28.64;49.20;99500.72;4250361;33;34256;-83
2022/08/28 09:43:25;;;;;;;8.15;5.45;;;;;;;29.01;50.38;99493.81;4271611;33;35956;-82
2022/08/28 09:46:24;;;;;;;12.25;6.53;;;;;;;29.83;46.08;99493.75;4271746;33;35558;-82
2022/08/28 09:49:12;;;;;;;8.05;5.15;;;;;;;28.69;49.62;99498.19;4260877;33;33123;-81
2022/08/28 09:52:17;;;;;;;8.40;5.40;;;;;;;29.39;50.94;99498.13;4259997;33;34603;-81
2022/08/28 09:55:12;;;;;;;8.68;5.40;;;;;;;28.82;51.22;99491.84;4260299;33;34460;-81
2022/08/28 09:57:59;;;;;;;7.70;5.18;;;;;;;28.92;48.50;99493.62;4251265;33;35029;-81
2022/08/28 10:00:52;;;;;;;8.02;5.30;;;;;;;28.51;49.58;99497.00;4260489;33;33647;-81
2022/08/28 10:03:57;;;;;;;9.57;5.12;;;;;;;29.22;49.28;99500.19;4261050;33;35627;-81
2022/08/28 10:06:49;;;;;;;9.70;5.47;;;;;;;29.40;48.18;99494.88;4271948;33;35908;-80
2022/08/28 10:09:36;;;;;;;9.90;5.15;;;;;;;29.25;48.60;99496.47;4261282;33;34080;-81
2022/08/28 10:12:32;;;;;;;7.70;4.93;;;;;;;29.49;45.97;99492.22;4269531;33;34148;-81
2022/08/28 10:15:41;;;;;;;10.43;5.05;;;;;;;29.17;49.52;99490.19;4260690;33;35994;-80
2022/08/28 10:18:36;;;;;;;7.15;4.85;;;;;;;30.17;44.20;99486.72;4271073;33;33916;-81
2022/08/28 10:21:32;;;;;;;7.55;4.65;;;;;;;29.84;45.38;99492.50;4260682;33;34586;-80
2022/08/28 10:24:25;;;;;;;5.45;4.50;;;;;;;29.36;46.32;99482.87;4260644;33;34087;-81
2022/08/28 10:27:41;;;;;;;9.00;4.78;;;;;;;29.75;44.86;99487.50;4261144;33;35675;-79
2022/08/28 10:30:29;;;;;;;7.12;4.60;;;;;;;29.07;46.73;99480.78;4259504;33;35032;-79
2022/08/28 10:33:38;;;;;;;5.53;4.15;;;;;;;30.05;42.79;99482.63;4271840;33;34590;-80
2022/08/28 10:36:30;;;;;;;8.25;4.50;;;;;;;30.06;43.63;99478.56;4270052;33;34235;-80
2022/08/28 10:39:56;;;;;;;9.27;4.75;;;;;;;30.39;42.88;99479.22;4261254;33;34635;-80
2022/08/28 10:42:52;;;;;;;9.48;5.10;;;;;;;30.20;43.23;99471.72;4271853;33;35072;-80
2022/08/28 10:45:39;;;;;;;12.07;4.72;;;;;;;30.41;42.65;99471.06;4259878;33;34671;-81
2022/08/28 10:48:54;;;;;;;8.88;4.68;;;;;;;30.08;45.62;99466.81;4258598;33;34032;-81
2022/08/28 10:51:47;;;;;;;8.85;4.20;;;;;;;30.88;40.58;99470.44;4252273;33;34199;-81
2022/08/28 10:54:41;;;;;;;8.23;4.50;;;;;;;30.43;41.76;99460.13;4259876;33;35930;-82
2022/08/28 10:57:33;;;;;;;7.00;4.40;;;;;;;30.33;42.62;99475.34;4271300;33;35538;-80
2022/08/28 11:00:26;;;;;;;9.38;4.47;;;;;;;30.95;41.19;99466.56;4260075;33;34022;-81
2022/08/28 11:03:15;;;;;;;10.25;5.10;;;;;;;30.79;41.36;99464.66;4255801;33;34808;-81
2022/08/28 11:06:34;;;;;;;6.93;4.07;;;;;;;30.97;40.76;99463.31;4260140;33;35971;-80
2022/08/28 11:09:31;;;;;;;8.60;4.03;;;;;;;31.30;39.15;99460.94;4258904;33;35143;-80
2022/08/28 11:12:18;;;;;;;8.90;4.45;;;;;;;31.12;40.01;99467.22;4267534;33;35151;-80
2022/08/28 11:15:41;;;;;;;6.87;3.90;;;;;;;30.85;40.90;99470.53;4266135;33;34301;-82
2022/08/28 11:18:42;;;;;;;8.27;4.05;;;;;;;30.78;40.58;99465.88;4254781;33;34920;-80
2022/08/28 11:21:35;;;;;;;7.97;3.80;;;;;;;31.03;40.76;99469.97;4255401;33;33239;-81
2022/08/28 11:24:31;;;;;;;5.82;3.72;;;;;;;30.77;39.67;99455.81;4256712;33;34992;-82
2022/08/28 11:27:29;;;;;;;7.25;4.00;;;;;;;30.76;40.74;99464.75;4269358;33;34724;-81
2022/08/28 11:30:16;;;;;;;6.03;3.75;;;;;;;30.60;40.89;99460.03;4256596;33;35317;-79
2022/08/28 11:33:28;;;;;;;5.87;3.67;;;;;;;30.67;40.51;99466.22;4257204;33;34647;-81
2022/08/28 11:36:20;;;;;;;8.38;3.80;;;;;;;31.05;39.70;99461.78;4270786;33;34030;-81
2022/08/28 11:39:13;;;;;;;5.60;3.05;;;;;;;30.45;42.45;99466.13;4270734;33;34685;-83
2022/08/28 11:42:08;;;;;;;7.10;3.47;;;;;;;30.10;40.07;99461.50;4268701;33;34632;-84
2022/08/28 11:44:55;;;;;;;6.47;3.30;;;;;;;30.36;39.02;99459.53;4258664;33;35337;-82
2022/08/28 11:47:44;;;;;;;5.87;3.72;;;;;;;30.88;38.95;99461.97;4259620;33;34104;-82
2022/08/28 11:50:49;;;;;;;5.97;3.12;;;;;;;29.93;39.83;99463.62;4256046;33;35415;-81
2022/08/28 11:53:40;;;;;;;6.72;3.30;;;;;;;31.64;37.31;99459.37;4269581;33;35580;-82
2022/08/28 11:56:41;;;;;;;6.55;3.67;;;;;;;31.47;37.84;99450.28;4258047;33;34550;-81
2022/08/28 11:59:54;;;;;;;5.72;3.28;;;;;;;30.96;38.00;99456.84;4248984;33;34954;-80
2022/08/28 12:02:43;;;;;;;6.50;3.80;;;;;;;31.67;36.75;99441.47;4257370;33;34858;-80
2022/08/28 12:05:30;;;;;;;9.55;3.97;;;;;;;32.44;35.57;99439.75;4268682;33;36423;-83
2022/08/28 12:08:45;;;;;;;7.37;3.70;;;;;;;32.73;34.82;99449.19;4269853;33;34185;-80
2022/08/28 12:11:38;;;;;;;7.95;4.10;;;;;;;29.87;42.38;99443.59;4270044;33;34957;-81
2022/08/28 12:14:24;;;;;;;9.57;4.00;;;;;;;30.55;40.97;99446.44;4268024;33;35210;-82
2022/08/28 12:17:13;;;;;;;6.22;3.78;;;;;;;30.75;37.79;99443.38;4269548;33;35897;-82
2022/08/28 12:20:19;;;;;;;7.20;3.55;;;;;;;31.06;35.62;99440.75;4257856;33;34976;-83
2022/08/28 12:23:33;;;;;;;10.45;4.07;;;;;;;31.54;35.80;99438.72;4239410;33;32985;-83
2022/08/28 12:26:36;;;;;;;8.52;4.00;;;;;;;30.40;38.57;99444.06;4270796;33;34741;-81
2022/08/28 12:29:36;;;;;;;7.87;3.95;;;;;;;31.10;41.07;99436.53;4268905;33;35172;-81
2022/08/28 12:32:44;;;;;;;6.60;4.30;;;;;;;31.17;41.42;99444.03;4269206;33;34110;-81
2022/08/28 12:35:30;;;;;;;7.90;4.60;;;;;;;31.16;41.54;99439.59;4269508;33;35725;-81
2022/08/28 12:38:20;;;;;;;6.82;4.18;;;;;;;31.39;40.77;99434.78;4258412;33;34642;-80
2022/08/28 12:41:13;;;;;;;5.75;4.30;;;;;;;30.98;41.49;99439.41;4258305;33;36046;-81
2022/08/28 12:44:00;;;;;;;7.78;4.47;;;;;;;30.88;43.10;99435.69;4246193;33;34536;-81
2022/08/28 12:46:47;;;;;;;7.03;4.55;;;;;;;30.36;44.83;99429.25;4269442;33;33687;-80
2022/08/28 12:49:36;;;;;;;8.13;4.45;;;;;;;30.92;43.67;99428.66;4268542;33;34138;-81
2022/08/28 12:52:24;;;;;;;8.90;4.65;;;;;;;30.92;45.60;99425.84;4258087;33;35017;-81
2022/08/28 12:55:10;;;;;;;9.75;4.45;;;;;;;30.89;43.25;99435.25;4258092;33;34616;-80
2022/08/28 12:57:58;;;;;;;7.95;4.57;;;;;;;30.88;43.23;99427.19;4269275;33;33796;-80
2022/08/28 13:00:54;;;;;;;8.40;4.15;;;;;;;30.75;44.56;99430.03;4258565;33;33376;-81
2022/08/28 13:03:49;;;;;;;8.27;4.82;;;;;;;30.79;45.98;99425.06;4258938;33;36015;-81
2022/08/28 13:06:37;;;;;;;7.62;4.82;;;;;;;30.83;46.05;99422.94;4269504;33;35643;-81
2022/08/28 13:09:25;;;;;;;7.82;4.43;;;;;;;30.73;46.94;99426.06;4259361;33;34838;-82
2022/08/28 13:12:30;;;;;;;8.75;4.53;;;;;;;30.78;44.68;99426.28;4258605;33;34671;-79
2022/08/28 13:15:48;;;;;;;7.87;4.55;;;;;;;30.56;44.62;99417.69;4268851;33;34046;-81
2022/08/28 13:18:37;;;;;;;7.62;4.60;;;;;;;29.94;47.44;99426.47;4270910;33;35503;-80
2022/08/28 13:21:26;;;;;;;9.73;5.03;;;;;;;30.13;47.06;99416.19;4272141;33;35119;-83
2022/08/28 13:24:19;;;;;;;8.07;4.78;;;;;;;29.77;46.26;99420.09;4260315;33;34632;-81
2022/08/28 13:27:17;;;;;;;11.15;4.80;;;;;;;30.44;45.87;99413.63;4257814;33;34999;-81
2022/08/28 13:30:18;;;;;;;7.62;4.80;;;;;;;30.77;45.44;99407.75;4257523;33;34500;-81